createdAt,value
2022-09-18T00:01:17.125Z,97310.44
2022-09-18T00:03:44.049Z,97312.50
2022-09-18T00:06:14.047Z,97310.81
2022-09-18T00:08:43.775Z,97315.44
2022-09-18T00:11:13.189Z,97311.94
2022-09-18T00:13:41.710Z,97319.34
2022-09-18T00:16:10.118Z,97334.13
2022-09-18T00:18:37.225Z,97333.31
2022-09-18T00:21:12.219Z,97314.72
2022-09-18T00:23:39.686Z,97326.00
2022-09-18T00:26:07.461Z,97331.56
2022-09-18T00:28:35.184Z,97339.56
2022-09-18T00:31:10.491Z,97347.31
2022-09-18T00:33:39.410Z,97342.53
2022-09-18T00:36:09.061Z,97340.91
2022-09-18T00:38:36.420Z,97344.50
2022-09-18T00:41:05.593Z,97345.12
2022-09-18T00:43:35.102Z,97345.72
2022-09-18T00:46:06.338Z,97348.84
2022-09-18T00:48:57.736Z,97342.72
2022-09-18T00:51:25.660Z,97350.44
2022-09-18T00:54:12.701Z,97351.28
2022-09-18T00:56:39.799Z,97355.56
2022-09-18T00:59:07.771Z,97348.03
2022-09-18T01:01:34.778Z,97352.28
2022-09-18T01:04:01.834Z,97353.34
2022-09-18T01:06:36.566Z,97350.19
2022-09-18T01:09:18.262Z,97361.97
2022-09-18T01:12:31.134Z,97354.56
2022-09-18T01:15:05.112Z,97356.53
2022-09-18T01:17:42.185Z,97351.41
2022-09-18T01:20:35.209Z,97350.59
2022-09-18T01:23:20.144Z,97351.16
2022-09-18T01:25:57.404Z,97361.59
2022-09-18T01:28:34.360Z,97358.50
2022-09-18T01:31:06.413Z,97354.28
2022-09-18T01:33:52.748Z,97353.16
2022-09-18T01:36:21.930Z,97350.75
2022-09-18T01:38:52.867Z,97359.69
2022-09-18T01:41:24.963Z,97366.91
2022-09-18T01:44:00.679Z,97366.34
2022-09-18T01:46:28.214Z,97376.50
2022-09-18T01:49:02.225Z,97373.00
2022-09-18T01:51:36.670Z,97385.41
2022-09-18T01:54:09.382Z,97391.03
2022-09-18T01:56:49.342Z,97387.34
2022-09-18T01:59:21.976Z,97386.50
2022-09-18T02:01:50.251Z,97401.56
2022-09-18T02:04:24.060Z,97398.94
2022-09-18T02:06:59.942Z,97393.50
2022-09-18T02:09:27.602Z,97400.63
2022-09-18T02:11:56.197Z,97401.81
2022-09-18T02:14:28.617Z,97413.00
2022-09-18T02:16:59.825Z,97415.41
2022-09-18T02:19:34.466Z,97415.06
2022-09-18T02:22:04.611Z,97412.56
2022-09-18T02:24:34.710Z,97412.09
2022-09-18T02:27:02.030Z,97423.00
2022-09-18T02:29:29.517Z,97414.84
2022-09-18T02:31:56.647Z,97410.31
2022-09-18T02:34:23.552Z,97416.03
2022-09-18T02:36:59.104Z,97423.00
2022-09-18T02:39:25.908Z,97419.84
2022-09-18T02:42:11.488Z,97409.84
2022-09-18T02:45:06.439Z,97416.44
2022-09-18T02:48:00.437Z,97417.44
2022-09-18T02:50:58.778Z,97419.41
2022-09-18T02:53:30.137Z,97423.63
2022-09-18T02:56:02.731Z,97425.69
2022-09-18T02:58:36.320Z,97425.41
2022-09-18T03:01:05.133Z,97432.13
2022-09-18T03:03:33.677Z,97432.06
2022-09-18T03:06:03.152Z,97437.34
2022-09-18T03:08:30.151Z,97447.28
2022-09-18T03:10:57.142Z,97439.06
2022-09-18T03:13:24.032Z,97439.81
2022-09-18T03:15:51.019Z,97434.25
2022-09-18T03:18:17.962Z,97440.16
2022-09-18T03:20:44.991Z,97440.97
2022-09-18T03:23:11.846Z,97434.56
2022-09-18T03:25:38.514Z,97446.53
2022-09-18T03:28:05.509Z,97445.25
2022-09-18T03:30:32.549Z,97443.59
2022-09-18T03:32:59.488Z,97447.87
2022-09-18T03:35:26.372Z,97460.50
2022-09-18T03:37:53.904Z,97444.69
2022-09-18T03:40:21.399Z,97439.25
2022-09-18T03:42:48.857Z,97448.03
2022-09-18T03:45:15.853Z,97447.75
2022-09-18T03:47:43.262Z,97457.25
2022-09-18T03:50:11.357Z,97474.47
2022-09-18T03:52:38.395Z,97473.81
2022-09-18T03:55:05.684Z,97481.44
2022-09-18T03:57:32.554Z,97481.22
2022-09-18T03:59:59.472Z,97482.12
2022-09-18T04:02:26.398Z,97485.22
2022-09-18T04:04:54.179Z,97495.53
2022-09-18T04:07:21.087Z,97494.53
2022-09-18T04:09:47.953Z,97478.59
2022-09-18T04:12:14.911Z,97483.53
2022-09-18T04:14:41.826Z,97487.94
2022-09-18T04:17:08.687Z,97494.81
2022-09-18T04:19:35.699Z,97487.66
2022-09-18T04:22:03.834Z,97485.72
2022-09-18T04:24:30.756Z,97491.16
2022-09-18T04:26:57.780Z,97496.19
2022-09-18T04:29:24.703Z,97496.50
2022-09-18T04:31:51.846Z,97502.31
2022-09-18T04:34:18.864Z,97502.47
2022-09-18T04:36:45.796Z,97512.31
2022-09-18T04:39:13.062Z,97500.84
2022-09-18T04:41:40.019Z,97512.47
2022-09-18T04:44:07.566Z,97507.03
2022-09-18T04:46:34.580Z,97504.41
2022-09-18T04:49:01.509Z,97513.66
2022-09-18T04:51:28.367Z,97504.44
2022-09-18T04:53:55.059Z,97518.75
2022-09-18T04:56:21.931Z,97520.06
2022-09-18T04:58:48.870Z,97530.94
2022-09-18T05:01:15.925Z,97522.31
2022-09-18T05:03:42.933Z,97520.03
2022-09-18T05:06:09.781Z,97517.28
2022-09-18T05:08:37.436Z,97524.41
2022-09-18T05:11:05.110Z,97529.13
2022-09-18T05:13:32.013Z,97523.19
2022-09-18T05:15:59.075Z,97520.16
2022-09-18T05:18:25.952Z,97533.03
2022-09-18T05:20:53.403Z,97530.69
2022-09-18T05:23:20.252Z,97528.59
2022-09-18T05:25:47.172Z,97541.34
2022-09-18T05:28:15.811Z,97539.19
2022-09-18T05:30:42.729Z,97538.78
2022-09-18T05:33:10.641Z,97534.38
2022-09-18T05:35:37.878Z,97537.00
2022-09-18T05:38:04.727Z,97536.97
2022-09-18T05:40:36.089Z,97540.81
2022-09-18T05:43:03.746Z,97536.38
2022-09-18T05:45:30.803Z,97541.34
2022-09-18T05:48:01.675Z,97540.41
2022-09-18T05:50:29.719Z,97539.03
2022-09-18T05:53:17.394Z,97545.38
2022-09-18T05:55:44.321Z,97545.22
2022-09-18T05:58:15.605Z,97557.22
2022-09-18T06:00:44.890Z,97566.81
2022-09-18T06:03:14.131Z,97557.88
2022-09-18T06:05:41.341Z,97555.16
2022-09-18T06:08:10.308Z,97548.66
2022-09-18T06:10:39.441Z,97547.91
2022-09-18T06:13:12.284Z,97551.69
2022-09-18T06:15:39.272Z,97546.69
2022-09-18T06:18:09.793Z,97551.09
2022-09-18T06:20:36.805Z,97559.41
2022-09-18T06:23:03.944Z,97558.34
2022-09-18T06:25:31.153Z,97552.00
2022-09-18T06:27:59.165Z,97553.87
2022-09-18T06:30:27.670Z,97560.91
2022-09-18T06:32:55.000Z,97559.41
2022-09-18T06:35:21.889Z,97563.66
2022-09-18T06:37:48.821Z,97567.03
2022-09-18T06:40:15.804Z,97564.84
2022-09-18T06:42:45.931Z,97569.19
2022-09-18T06:45:13.262Z,97566.25
2022-09-18T06:47:40.170Z,97573.66
2022-09-18T06:50:08.219Z,97574.25
2022-09-18T06:52:35.122Z,97587.31
2022-09-18T06:55:02.002Z,97588.62
2022-09-18T06:57:28.894Z,97590.75
2022-09-18T06:59:55.832Z,97597.84
2022-09-18T07:02:22.782Z,97595.75
2022-09-18T07:04:49.745Z,97597.28
2022-09-18T07:07:16.597Z,97606.34
2022-09-18T07:09:43.439Z,97600.84
2022-09-18T07:12:10.258Z,97601.50
2022-09-18T07:14:37.120Z,97605.56
2022-09-18T07:17:04.064Z,97614.84
2022-09-18T07:19:31.106Z,97610.06
2022-09-18T07:21:58.203Z,97615.91
2022-09-18T07:24:25.129Z,97620.28
2022-09-18T07:26:52.015Z,97618.72
2022-09-18T07:29:18.879Z,97621.81
2022-09-18T07:31:45.867Z,97628.19
2022-09-18T07:34:12.836Z,97633.22
2022-09-18T07:36:39.757Z,97630.75
2022-09-18T07:39:06.635Z,97633.72
2022-09-18T07:41:33.490Z,97643.91
2022-09-18T07:44:00.378Z,97640.34
2022-09-18T07:46:27.343Z,97639.50
2022-09-18T07:48:54.345Z,97636.28
2022-09-18T07:51:26.023Z,97619.12
2022-09-18T07:53:53.327Z,97618.41
2022-09-18T07:56:20.225Z,97618.25
2022-09-18T07:58:47.106Z,97621.56
2022-09-18T08:01:14.037Z,97627.56
2022-09-18T08:03:41.695Z,97616.37
2022-09-18T08:06:08.867Z,97621.31
2022-09-18T08:08:39.295Z,97623.34
2022-09-18T08:11:06.267Z,97623.13
2022-09-18T08:13:33.256Z,97621.09
2022-09-18T08:16:00.210Z,97620.12
2022-09-18T08:18:27.135Z,97616.47
2022-09-18T08:20:56.890Z,97625.44
2022-09-18T08:23:23.845Z,97619.69
2022-09-18T08:25:50.696Z,97614.75
2022-09-18T08:28:17.684Z,97618.66
2022-09-18T08:30:44.581Z,97611.53
2022-09-18T08:33:11.978Z,97610.50
2022-09-18T08:35:39.093Z,97610.00
2022-09-18T08:38:06.850Z,97606.88
2022-09-18T08:40:59.156Z,97616.84
2022-09-18T08:43:26.169Z,97611.62
2022-09-18T08:46:12.829Z,97613.38
2022-09-18T08:48:46.789Z,97615.28
2022-09-18T08:51:19.676Z,97608.75
2022-09-18T08:53:51.079Z,97606.19
2022-09-18T08:56:22.484Z,97609.78
2022-09-18T08:58:56.426Z,97609.00
2022-09-18T09:01:28.595Z,97596.59
2022-09-18T09:04:04.574Z,97616.03
2022-09-18T09:06:46.648Z,97614.78
2022-09-18T09:09:25.733Z,97617.94
2022-09-18T09:12:19.798Z,97596.00
2022-09-18T09:15:20.839Z,97604.88
2022-09-18T09:18:12.497Z,97604.16
2022-09-18T09:20:53.205Z,97607.22
2022-09-18T09:23:46.340Z,97609.22
2022-09-18T09:26:23.530Z,97611.00
2022-09-18T09:28:52.832Z,97617.06
2022-09-18T09:31:24.317Z,97616.47
2022-09-18T09:34:14.888Z,97623.63
2022-09-18T09:36:42.775Z,97614.16
2022-09-18T09:39:19.079Z,97608.50
2022-09-18T09:41:53.961Z,97626.34
2022-09-18T09:44:25.643Z,97616.47
2022-09-18T09:47:08.456Z,97630.56
2022-09-18T09:50:01.003Z,97633.91
2022-09-18T09:52:28.978Z,97634.62
2022-09-18T09:55:01.352Z,97628.44
2022-09-18T09:57:42.324Z,97638.34
2022-09-18T10:00:20.538Z,97631.84
2022-09-18T10:03:33.284Z,97640.34
2022-09-18T10:06:31.727Z,97632.59
2022-09-18T10:09:22.564Z,97636.09
2022-09-18T10:11:57.437Z,97633.50
2022-09-18T10:14:26.213Z,97646.66
2022-09-18T10:16:54.504Z,97634.94
2022-09-18T10:19:22.762Z,97630.41
2022-09-18T10:21:54.431Z,97635.69
2022-09-18T10:24:34.288Z,97647.31
2022-09-18T10:27:04.166Z,97647.31
2022-09-18T10:29:35.602Z,97650.72
2022-09-18T10:32:03.252Z,97640.75
2022-09-18T10:34:41.833Z,97622.56
2022-09-18T10:37:31.556Z,97644.44
2022-09-18T10:40:00.331Z,97651.72
2022-09-18T10:42:32.905Z,97653.13
2022-09-18T10:45:03.173Z,97650.53
2022-09-18T10:47:32.888Z,97647.44
2022-09-18T10:50:11.545Z,97649.12
2022-09-18T10:52:54.214Z,97649.00
2022-09-18T10:55:26.561Z,97644.19
2022-09-18T10:58:13.879Z,97654.94
2022-09-18T11:00:48.588Z,97649.00
2022-09-18T11:03:38.454Z,97637.19
2022-09-18T11:06:09.216Z,97660.78
2022-09-18T11:08:42.331Z,97668.56
2022-09-18T11:11:14.130Z,97663.00
2022-09-18T11:13:52.463Z,97659.94
2022-09-18T11:16:24.406Z,97658.66
2022-09-18T11:19:07.676Z,97651.28
2022-09-18T11:21:51.056Z,97655.34
2022-09-18T11:24:23.331Z,97650.16
2022-09-18T11:26:55.526Z,97680.44
2022-09-18T11:29:32.387Z,97691.53
2022-09-18T11:32:03.865Z,97691.19
2022-09-18T11:34:37.586Z,97698.09
2022-09-18T11:37:09.782Z,97692.88
2022-09-18T11:39:40.805Z,97699.34
2022-09-18T11:42:17.972Z,97691.63
2022-09-18T11:44:45.335Z,97695.97
2022-09-18T11:47:25.954Z,97685.25
2022-09-18T11:50:06.593Z,97668.25
2022-09-18T11:52:40.731Z,97675.91
2022-09-18T11:55:26.366Z,97667.84
2022-09-18T11:58:13.444Z,97669.63
2022-09-18T12:00:49.000Z,97665.56
2022-09-18T12:03:29.355Z,97671.88
2022-09-18T12:06:03.699Z,97675.53
2022-09-18T12:08:48.460Z,97668.22
2022-09-18T12:11:41.541Z,97662.31
2022-09-18T12:14:27.060Z,97665.41
2022-09-18T12:17:00.938Z,97659.72
2022-09-18T12:19:40.692Z,97650.66
2022-09-18T12:22:18.695Z,97639.88
2022-09-18T12:24:45.546Z,97667.94
2022-09-18T12:27:28.916Z,97669.63
2022-09-18T12:30:01.203Z,97640.13
2022-09-18T12:32:28.033Z,97690.72
2022-09-18T12:35:01.302Z,97693.00
2022-09-18T12:37:40.711Z,97689.41
2022-09-18T12:40:22.867Z,97714.72
2022-09-18T12:42:57.293Z,97767.09
2022-09-18T12:45:30.360Z,97780.16
2022-09-18T12:48:00.840Z,97786.06
2022-09-18T12:50:53.593Z,97775.09
2022-09-18T12:53:29.474Z,97764.78
2022-09-18T12:56:19.049Z,97768.66
2022-09-18T12:59:10.752Z,97771.59
2022-09-18T13:01:51.771Z,97751.38
2022-09-18T13:04:23.714Z,97742.81
2022-09-18T13:06:58.127Z,97738.44
2022-09-18T13:09:30.395Z,97737.34
2022-09-18T13:12:19.907Z,97740.81
2022-09-18T13:14:54.335Z,97732.59
2022-09-18T13:17:35.619Z,97732.88
2022-09-18T13:20:13.781Z,97736.09
2022-09-18T13:22:42.869Z,97737.97
2022-09-18T13:25:22.661Z,97741.75
2022-09-18T13:27:50.353Z,97734.94
2022-09-18T13:30:25.914Z,97728.81
2022-09-18T13:32:54.271Z,97725.72
2022-09-18T13:35:29.173Z,97728.63
2022-09-18T13:38:09.259Z,97724.78
2022-09-18T13:40:42.068Z,97724.56
2022-09-18T13:43:18.350Z,97721.75
2022-09-18T13:45:45.500Z,97714.56
2022-09-18T13:48:12.445Z,97722.31
2022-09-18T13:50:55.559Z,97728.09
2022-09-18T13:53:33.389Z,97729.91
2022-09-18T13:56:00.497Z,97729.06
2022-09-18T13:58:34.931Z,97739.84
2022-09-18T14:01:05.884Z,97727.66
2022-09-18T14:03:42.306Z,97726.19
2022-09-18T14:06:41.265Z,97737.56
2022-09-18T14:09:45.558Z,97743.44
2022-09-18T14:12:16.596Z,97744.78
2022-09-18T14:14:44.113Z,97747.47
2022-09-18T14:17:13.600Z,97750.38
2022-09-18T14:19:40.719Z,97750.63
2022-09-18T14:22:25.992Z,97737.06
2022-09-18T14:24:52.835Z,97737.53
2022-09-18T14:27:28.588Z,97730.97
2022-09-18T14:29:57.032Z,97726.62
2022-09-18T14:32:24.793Z,97730.34
2022-09-18T14:35:05.165Z,97719.88
2022-09-18T14:37:35.188Z,97714.03
2022-09-18T14:40:02.361Z,97717.00
2022-09-18T14:42:33.470Z,97726.22
2022-09-18T14:45:12.671Z,97725.22
2022-09-18T14:47:48.985Z,97706.75
2022-09-18T14:50:37.554Z,97701.56
2022-09-18T14:53:20.010Z,97706.00
2022-09-18T14:55:53.209Z,97707.37
2022-09-18T14:58:22.174Z,97691.56
2022-09-18T15:00:54.489Z,97698.91
2022-09-18T15:03:26.190Z,97694.75
2022-09-18T15:05:57.183Z,97693.03
2022-09-18T15:08:26.802Z,97699.72
2022-09-18T15:10:57.269Z,97688.19
2022-09-18T15:13:24.239Z,97691.53
2022-09-18T15:15:59.801Z,97692.25
2022-09-18T15:18:28.498Z,97692.28
2022-09-18T15:20:57.955Z,97686.25
2022-09-18T15:23:34.094Z,97686.31
2022-09-18T15:26:03.659Z,97695.06
2022-09-18T15:28:34.023Z,97693.81
2022-09-18T15:31:04.875Z,97702.69
2022-09-18T15:33:33.503Z,97696.53
2022-09-18T15:36:00.496Z,97705.84
2022-09-18T15:38:41.019Z,97703.22
2022-09-18T15:41:21.664Z,97720.69
2022-09-18T15:43:50.469Z,97721.09
2022-09-18T15:46:31.911Z,97716.56
2022-09-18T15:49:04.379Z,97718.59
2022-09-18T15:51:34.086Z,97720.78
2022-09-18T15:54:10.674Z,97724.38
2022-09-18T15:56:48.406Z,97735.72
2022-09-18T15:59:25.732Z,97736.09
2022-09-18T16:01:52.655Z,97731.84
2022-09-18T16:04:24.013Z,97741.12
2022-09-18T16:06:57.559Z,97735.66
2022-09-18T16:09:33.560Z,97743.31
2022-09-18T16:12:00.768Z,97740.53
2022-09-18T16:15:01.484Z,97738.16
2022-09-18T16:17:36.492Z,97741.62
2022-09-18T16:20:33.177Z,97738.81
2022-09-18T16:23:16.593Z,97744.31
2022-09-18T16:25:44.234Z,97725.97
2022-09-18T16:28:24.334Z,97721.09
2022-09-18T16:30:51.948Z,97726.84
2022-09-18T16:33:21.449Z,97722.31
2022-09-18T16:35:55.720Z,97728.28
2022-09-18T16:38:23.381Z,97737.81
2022-09-18T16:40:50.521Z,97727.81
2022-09-18T16:43:17.496Z,97727.78
2022-09-18T16:45:44.520Z,97723.31
2022-09-18T16:48:11.805Z,97727.13
2022-09-18T16:50:39.222Z,97729.63
2022-09-18T16:53:06.631Z,97729.34
2022-09-18T16:55:34.210Z,97720.59
2022-09-18T16:58:01.231Z,97722.75
2022-09-18T17:00:28.115Z,97724.34
2022-09-18T17:02:56.535Z,97723.47
2022-09-18T17:05:23.700Z,97731.31
2022-09-18T17:07:50.635Z,97723.75
2022-09-18T17:10:17.580Z,97722.59
2022-09-18T17:12:46.686Z,97723.13
2022-09-18T17:15:13.716Z,97719.97
2022-09-18T17:17:40.591Z,97723.59
2022-09-18T17:20:08.181Z,97724.78
2022-09-18T17:22:35.261Z,97717.19
2022-09-18T17:25:02.135Z,97726.69
2022-09-18T17:27:29.782Z,97733.53
2022-09-18T17:29:56.672Z,97732.41
2022-09-18T17:32:23.614Z,97734.78
2022-09-18T17:34:50.536Z,97746.47
2022-09-18T17:37:17.451Z,97747.09
2022-09-18T17:39:46.374Z,97750.41
2022-09-18T17:42:14.209Z,97751.78
2022-09-18T17:44:41.556Z,97762.94
2022-09-18T17:47:08.417Z,97753.66
2022-09-18T17:49:35.342Z,97753.28
2022-09-18T17:52:02.456Z,97758.78
2022-09-18T17:54:29.809Z,97762.03
2022-09-18T17:56:56.670Z,97769.34
2022-09-18T17:59:23.575Z,97763.09
2022-09-18T18:01:50.752Z,97770.09
2022-09-18T18:04:18.180Z,97768.75
2022-09-18T18:06:48.223Z,97771.19
2022-09-18T18:09:15.426Z,97770.38
2022-09-18T18:11:44.412Z,97774.28
2022-09-18T18:14:11.285Z,97779.12
2022-09-18T18:16:41.258Z,97783.13
2022-09-18T18:19:12.327Z,97784.06
2022-09-18T18:21:41.337Z,97779.19
2022-09-18T18:24:15.478Z,97781.00
2022-09-18T18:26:43.514Z,97780.72
2022-09-18T18:29:12.465Z,97790.66
2022-09-18T18:31:41.328Z,97797.28
2022-09-18T18:34:10.674Z,97801.72
2022-09-18T18:36:39.881Z,97804.22
2022-09-18T18:39:10.060Z,97808.66
2022-09-18T18:41:37.363Z,97817.50
2022-09-18T18:44:07.355Z,97814.94
2022-09-18T18:46:36.539Z,97813.66
2022-09-18T18:49:09.478Z,97807.84
2022-09-18T18:51:43.865Z,97808.06
2022-09-18T18:54:11.576Z,97807.97
2022-09-18T18:56:39.039Z,97810.19
2022-09-18T18:59:08.967Z,97798.09
2022-09-18T19:01:36.272Z,97797.28
2022-09-18T19:04:08.850Z,97792.53
2022-09-18T19:06:38.996Z,97782.59
2022-09-18T19:09:20.249Z,97789.88
2022-09-18T19:11:50.468Z,97781.59
2022-09-18T19:14:22.765Z,97790.28
2022-09-18T19:16:50.262Z,97790.47
2022-09-18T19:19:18.797Z,97785.94
2022-09-18T19:21:46.046Z,97777.56
2022-09-18T19:24:13.458Z,97787.28
2022-09-18T19:26:41.857Z,97794.28
2022-09-18T19:29:12.347Z,97803.63
2022-09-18T19:31:40.652Z,97798.69
2022-09-18T19:34:07.644Z,97803.53
2022-09-18T19:36:34.770Z,97812.66
2022-09-18T19:39:04.622Z,97816.50
2022-09-18T19:41:48.282Z,97815.31
2022-09-18T19:44:37.731Z,97809.16
2022-09-18T19:47:18.939Z,97812.22
2022-09-18T19:49:46.154Z,97812.03
2022-09-18T19:52:18.159Z,97810.00
2022-09-18T19:54:46.618Z,97808.44
2022-09-18T19:57:14.149Z,97807.72
2022-09-18T19:59:41.011Z,97808.09
2022-09-18T20:02:08.897Z,97808.47
2022-09-18T20:04:40.336Z,97785.19
2022-09-18T20:07:08.134Z,97771.72
2022-09-18T20:09:35.068Z,97779.75
2022-09-18T20:12:02.380Z,97777.50
2022-09-18T20:14:29.303Z,97785.25
2022-09-18T20:16:57.009Z,97784.31
2022-09-18T20:19:25.399Z,97760.97
2022-09-18T20:21:53.046Z,97765.81
2022-09-18T20:24:20.292Z,97765.41
2022-09-18T20:26:47.239Z,97757.69
2022-09-18T20:29:16.163Z,97756.56
2022-09-18T20:31:43.563Z,97766.50
2022-09-18T20:34:11.232Z,97758.09
2022-09-18T20:36:38.552Z,97754.34
2022-09-18T20:39:05.682Z,97754.63
2022-09-18T20:41:32.676Z,97736.16
2022-09-18T20:44:05.191Z,97728.78
2022-09-18T20:46:36.895Z,97725.97
2022-09-18T20:49:04.370Z,97731.31
2022-09-18T20:51:33.581Z,97739.91
2022-09-18T20:54:02.041Z,97730.66
2022-09-18T20:56:36.261Z,97725.22
2022-09-18T20:59:07.749Z,97726.16
2022-09-18T21:01:35.632Z,97707.69
2022-09-18T21:04:02.857Z,97712.13
2022-09-18T21:06:33.583Z,97706.84
2022-09-18T21:09:05.113Z,97714.03
2022-09-18T21:11:35.037Z,97715.19
2022-09-18T21:14:03.486Z,97703.84
2022-09-18T21:16:35.308Z,97716.38
2022-09-18T21:19:04.838Z,97717.31
2022-09-18T21:21:34.158Z,97712.41
2022-09-18T21:24:04.395Z,97714.72
2022-09-18T21:26:38.516Z,97714.16
2022-09-18T21:29:13.657Z,97718.81
2022-09-18T21:31:45.320Z,97703.84
2022-09-18T21:34:17.298Z,97707.53
2022-09-18T21:36:45.111Z,97709.19
2022-09-18T21:39:13.838Z,97711.66
2022-09-18T21:41:46.343Z,97719.50
2022-09-18T21:44:18.046Z,97725.16
2022-09-18T21:46:48.172Z,97729.47
2022-09-18T21:49:16.427Z,97728.38
2022-09-18T21:51:43.650Z,97729.44
2022-09-18T21:54:21.001Z,97724.94
2022-09-18T21:56:51.419Z,97725.13
2022-09-18T21:59:23.468Z,97715.16
2022-09-18T22:01:53.065Z,97708.63
2022-09-18T22:04:24.295Z,97711.62
2022-09-18T22:06:51.162Z,97715.78
2022-09-18T22:09:22.345Z,97709.63
2022-09-18T22:11:50.814Z,97711.41
2022-09-18T22:14:21.153Z,97704.91
2022-09-18T22:16:48.606Z,97707.59
2022-09-18T22:19:16.903Z,97705.81
2022-09-18T22:21:45.987Z,97708.19
2022-09-18T22:24:17.934Z,97696.25
2022-09-18T22:26:54.978Z,97704.75
2022-09-18T22:29:26.868Z,97697.75
2022-09-18T22:31:53.969Z,97696.06
2022-09-18T22:34:23.501Z,97687.28
2022-09-18T22:36:51.161Z,97685.66
2022-09-18T22:39:19.553Z,97686.97
2022-09-18T22:41:46.645Z,97670.78
2022-09-18T22:44:14.331Z,97663.00
2022-09-18T22:46:44.195Z,97673.28
2022-09-18T22:49:15.846Z,97664.59
2022-09-18T22:51:43.688Z,97661.06
2022-09-18T22:54:11.208Z,97663.81
2022-09-18T22:56:44.671Z,97656.28
2022-09-18T22:59:13.231Z,97646.72
2022-09-18T23:01:49.138Z,97651.38
2022-09-18T23:04:18.912Z,97650.25
2022-09-18T23:06:47.453Z,97647.97
2022-09-18T23:09:15.153Z,97647.69
2022-09-18T23:11:43.474Z,97646.13
2022-09-18T23:14:14.637Z,97649.06
2022-09-18T23:16:41.595Z,97634.62
2022-09-18T23:19:14.403Z,97642.19
2022-09-18T23:21:41.250Z,97639.59
2022-09-18T23:24:09.407Z,97639.94
2022-09-18T23:26:41.123Z,97638.66
2022-09-18T23:29:11.391Z,97646.00
2022-09-18T23:31:41.770Z,97625.75
2022-09-18T23:34:12.252Z,97610.41
2022-09-18T23:36:41.430Z,97624.34
2022-09-18T23:39:12.968Z,97628.34
2022-09-18T23:41:40.141Z,97636.97
2022-09-18T23:44:09.024Z,97639.13
2022-09-18T23:46:36.356Z,97641.50
2022-09-18T23:49:04.342Z,97638.84
2022-09-18T23:51:34.004Z,97643.19
2022-09-18T23:54:03.389Z,97644.50
2022-09-18T23:56:33.553Z,97630.91
2022-09-18T23:59:02.775Z,97622.50
